createdAt,value
2018-12-08T13:07:31.227Z,771.63
2018-12-08T13:08:31.324Z,397.70
2018-12-08T13:09:31.369Z,346.20
2018-12-08T13:10:31.475Z,326.23
2018-12-08T13:11:31.734Z,314.81
2018-12-08T13:12:31.562Z,308.14
2018-12-08T13:13:31.587Z,304.61
2018-12-08T13:14:31.681Z,301.33
2018-12-08T13:15:31.707Z,300.92
2018-12-08T13:16:31.794Z,298.19
2018-12-08T13:17:31.750Z,296.57
2018-12-08T13:18:31.766Z,296.04
2018-12-08T13:19:31.952Z,295.01
2018-12-08T13:20:31.867Z,294.60
2018-12-08T13:21:31.874Z,294.31
2018-12-08T13:22:31.904Z,293.76
2018-12-08T13:23:31.930Z,294.05
2018-12-08T13:24:31.986Z,292.48
2018-12-08T13:25:31.984Z,293.09
2018-12-08T13:26:32.073Z,292.33
2018-12-08T13:27:32.085Z,292.25
2018-12-08T13:28:32.092Z,292.63
2018-12-08T13:29:32.158Z,291.60
2018-12-08T13:30:32.188Z,290.96
2018-12-08T13:31:32.186Z,290.71
2018-12-08T13:32:32.194Z,291.70
2018-12-08T13:33:32.210Z,290.98
2018-12-08T13:34:32.227Z,290.86
2018-12-08T13:35:32.247Z,290.08
2018-12-08T13:36:32.312Z,290.35
2018-12-08T13:37:32.290Z,290.22
2018-12-08T13:38:32.433Z,290.35
2018-12-08T13:39:32.301Z,290.50
2018-12-08T13:40:32.370Z,289.64
2018-12-08T13:41:32.587Z,290.27
2018-12-08T13:42:32.323Z,290.28
2018-12-08T13:43:32.413Z,290.06
2018-12-08T13:44:32.439Z,290.09
2018-12-08T13:45:32.475Z,289.53
2018-12-08T13:46:32.531Z,289.36
2018-12-08T13:47:32.584Z,288.70
2018-12-08T13:48:32.578Z,289.48
2018-12-08T13:49:32.645Z,289.71
2018-12-08T13:50:32.568Z,289.35
2018-12-08T13:51:32.627Z,288.88
2018-12-08T13:52:32.614Z,288.07
2018-12-08T13:53:36.703Z,289.32
2018-12-08T13:54:32.673Z,288.46
2018-12-08T13:55:32.702Z,288.42
2018-12-08T13:56:32.746Z,288.92
2018-12-08T13:57:32.791Z,288.56
2018-12-08T13:58:32.768Z,288.23
2018-12-08T13:59:32.851Z,289.20
2018-12-08T14:00:32.871Z,288.76
2018-12-08T14:01:32.874Z,288.60
2018-12-08T14:02:32.916Z,288.54
2018-12-08T14:03:32.930Z,287.25
2018-12-08T14:04:32.979Z,288.25
2018-12-08T14:05:32.943Z,287.79
2018-12-08T14:06:33.005Z,288.26
2018-12-08T14:07:32.949Z,282.75
2018-12-08T14:08:32.995Z,279.64
2018-12-08T14:09:32.997Z,284.88
2018-12-08T14:10:33.035Z,285.64
2018-12-08T14:11:33.319Z,285.20
2018-12-08T14:12:33.045Z,285.19
2018-12-08T14:13:33.108Z,287.43
2018-12-08T14:14:33.103Z,286.68
2018-12-08T14:15:33.132Z,286.80
2018-12-08T14:16:33.250Z,286.85
2018-12-08T14:17:33.231Z,287.00
2018-12-08T14:18:33.258Z,286.72
2018-12-08T14:19:33.246Z,287.58
2018-12-08T14:20:33.315Z,287.15
2018-12-08T14:21:33.375Z,287.37
2018-12-08T14:22:33.323Z,287.42
2018-12-08T14:23:33.336Z,287.37
2018-12-08T14:24:33.343Z,286.85
2018-12-08T14:25:33.332Z,287.18
2018-12-08T14:26:33.433Z,287.67
2018-12-08T14:27:33.395Z,287.53
2018-12-08T14:28:34.239Z,288.02
2018-12-08T14:29:33.439Z,287.43
2018-12-08T14:30:33.428Z,287.42
2018-12-08T14:31:33.415Z,287.57
2018-12-08T14:32:33.503Z,287.46
2018-12-08T14:33:33.493Z,287.43
2018-12-08T14:34:33.512Z,287.08
2018-12-08T14:35:33.543Z,287.25
2018-12-08T14:36:33.515Z,287.84
2018-12-08T14:37:33.554Z,286.95
2018-12-08T14:38:33.592Z,287.76
2018-12-08T14:39:33.545Z,287.92
2018-12-08T14:40:33.756Z,287.31
2018-12-08T14:41:33.578Z,287.80
2018-12-08T14:42:33.581Z,286.39
2018-12-08T14:43:33.541Z,287.17
2018-12-08T14:44:33.571Z,285.64
2018-12-08T14:51:03.424Z,252.62
2018-12-08T14:52:03.483Z,268.42
2018-12-08T14:53:03.492Z,269.92
2018-12-08T14:54:03.578Z,273.57
2018-12-08T14:55:03.697Z,273.47
2018-12-08T14:56:03.793Z,272.41
2018-12-08T14:57:03.848Z,275.06
2018-12-08T14:58:04.003Z,274.75
2018-12-08T14:59:04.040Z,274.49
2018-12-08T15:00:04.120Z,274.49
2018-12-08T15:01:04.165Z,275.57
2018-12-08T15:02:04.207Z,277.82
2018-12-08T15:03:04.339Z,279.39
2018-12-08T15:04:04.420Z,277.75
2018-12-08T15:05:04.456Z,279.97
2018-12-08T15:06:04.485Z,279.59
2018-12-08T15:07:04.572Z,281.57
2018-12-08T15:08:04.673Z,281.48
2018-12-08T15:09:04.764Z,282.31
2018-12-08T15:10:04.822Z,282.58
2018-12-08T15:11:04.956Z,282.24
2018-12-08T15:12:04.982Z,282.82
2018-12-08T15:13:05.105Z,284.37
2018-12-08T15:14:05.447Z,284.97
2018-12-08T15:15:05.299Z,285.49
2018-12-08T15:16:05.360Z,285.67
2018-12-08T15:17:05.413Z,286.16
2018-12-08T15:18:05.449Z,285.84
2018-12-08T15:19:05.513Z,287.05
2018-12-08T15:20:05.639Z,287.52
2018-12-08T15:21:05.761Z,288.30
2018-12-08T15:22:05.845Z,288.17
2018-12-08T15:23:05.884Z,287.54
2018-12-08T15:24:05.967Z,287.30
2018-12-08T15:25:06.057Z,288.61
2018-12-08T15:26:06.099Z,289.15
2018-12-08T15:27:06.186Z,288.56
2018-12-08T15:28:06.251Z,289.10
2018-12-08T15:29:06.327Z,289.14
2018-12-08T15:30:06.419Z,288.89
2018-12-08T15:31:06.538Z,289.50
2018-12-08T15:32:06.658Z,290.90
2018-12-08T15:33:06.724Z,289.89
2018-12-08T15:34:06.769Z,290.81
2018-12-08T15:35:06.964Z,290.67
2018-12-08T15:36:06.431Z,289.75
2018-12-08T15:37:06.511Z,291.06
2018-12-08T15:38:06.549Z,290.90
2018-12-08T15:39:06.586Z,292.86
2018-12-08T15:40:06.674Z,290.70
2018-12-08T15:41:06.673Z,291.52
2018-12-08T15:42:06.797Z,291.16
2018-12-08T15:43:06.981Z,291.14
2018-12-08T15:44:06.945Z,290.02
2018-12-08T15:45:07.023Z,291.30
2018-12-08T15:46:07.080Z,290.30
2018-12-08T15:47:07.179Z,290.65
2018-12-08T15:48:07.195Z,290.64
2018-12-08T15:49:07.254Z,290.82
2018-12-08T15:50:07.350Z,290.79
2018-12-08T15:51:07.401Z,291.66
2018-12-08T15:52:07.427Z,291.69
2018-12-08T15:53:07.479Z,290.83
2018-12-08T15:54:07.537Z,291.40
2018-12-08T15:55:07.593Z,291.60
2018-12-08T15:56:08.082Z,291.81
2018-12-08T15:57:07.720Z,291.33
2018-12-08T15:58:07.748Z,290.76
2018-12-08T15:59:07.860Z,291.65
2018-12-08T16:00:07.864Z,292.02
2018-12-08T16:01:07.914Z,291.43
2018-12-08T16:02:07.985Z,291.33
2018-12-08T16:03:08.037Z,291.43
2018-12-08T16:04:08.085Z,290.57
2018-12-08T16:05:08.179Z,291.26
2018-12-08T16:06:08.196Z,291.47
2018-12-08T16:07:08.297Z,290.61
2018-12-08T16:08:08.400Z,290.27
2018-12-08T16:09:08.383Z,290.70
2018-12-08T16:10:08.433Z,290.15
2018-12-08T16:11:08.478Z,292.01
2018-12-08T16:12:08.549Z,290.86
2018-12-08T16:13:10.577Z,291.38
2018-12-08T16:14:08.669Z,290.35
2018-12-08T16:15:08.740Z,290.45
2018-12-08T16:16:08.893Z,291.24
2018-12-08T16:17:08.873Z,290.67
2018-12-08T16:18:08.903Z,289.93
2018-12-08T16:19:08.960Z,291.05
2018-12-08T16:20:09.027Z,292.31
2018-12-08T16:21:09.091Z,290.98
2018-12-08T16:22:09.157Z,290.54
2018-12-08T16:23:09.219Z,289.54
2018-12-08T16:24:09.301Z,290.39
2018-12-08T16:25:09.342Z,289.93
2018-12-08T16:26:09.361Z,290.47
2018-12-08T16:27:09.443Z,291.51
2018-12-08T16:28:09.511Z,289.94
2018-12-08T16:29:09.530Z,289.88
2018-12-08T16:30:09.607Z,290.60
2018-12-08T16:31:09.652Z,289.91
2018-12-08T16:32:09.802Z,292.39
2018-12-08T16:33:09.774Z,290.18
2018-12-08T16:34:09.820Z,290.75
2018-12-08T16:35:10.955Z,289.79
2018-12-08T16:36:09.958Z,290.36
2018-12-08T16:37:10.036Z,288.80
2018-12-08T16:38:10.076Z,289.09
2018-12-08T16:39:10.141Z,289.21
2018-12-08T16:40:10.220Z,290.19
2018-12-08T16:41:10.331Z,292.06
2018-12-08T16:42:10.293Z,291.19
2018-12-08T16:43:10.356Z,289.55
2018-12-08T16:44:10.422Z,289.58
2018-12-08T16:45:10.496Z,290.84
2018-12-08T16:46:10.538Z,290.26
2018-12-08T16:47:10.627Z,290.12
2018-12-08T16:48:10.678Z,291.37
2018-12-08T16:49:10.810Z,290.60
2018-12-08T16:50:10.777Z,290.27
2018-12-08T16:51:10.813Z,290.55
2018-12-08T16:52:10.903Z,289.57
2018-12-08T16:53:10.967Z,289.85
2018-12-08T16:54:11.011Z,289.89
2018-12-08T16:55:11.096Z,290.28
2018-12-08T16:56:11.138Z,289.05
2018-12-08T16:57:11.261Z,289.99
2018-12-08T16:58:11.232Z,290.93
2018-12-08T16:59:11.297Z,289.90
2018-12-08T17:00:11.352Z,290.72
2018-12-08T17:01:11.393Z,291.38
2018-12-08T17:02:11.460Z,290.38
2018-12-08T17:03:11.537Z,290.41
2018-12-08T17:04:11.583Z,290.33
2018-12-08T17:05:11.713Z,289.22
2018-12-08T17:06:11.680Z,289.62
2018-12-08T17:07:11.779Z,289.76
2018-12-08T17:08:11.829Z,289.61
2018-12-08T17:09:11.864Z,290.76
2018-12-08T17:10:12.171Z,290.11
2018-12-08T17:11:11.982Z,289.42
2018-12-08T17:12:12.057Z,290.25
2018-12-08T17:13:12.140Z,288.64
2018-12-08T17:14:12.229Z,290.87
2018-12-08T17:15:12.225Z,289.96
2018-12-08T17:16:12.258Z,289.40
2018-12-08T17:17:12.336Z,289.74
2018-12-08T17:18:12.402Z,289.08
2018-12-08T17:19:12.459Z,290.31
2018-12-08T17:20:12.530Z,288.51
2018-12-08T17:21:12.596Z,289.30
2018-12-08T17:22:12.762Z,289.70
2018-12-08T17:23:12.687Z,289.54
2018-12-08T17:24:12.730Z,289.30
2018-12-08T17:25:12.810Z,289.73
2018-12-08T17:26:12.859Z,289.40
2018-12-08T17:27:12.934Z,289.18
2018-12-08T17:28:12.981Z,289.83
2018-12-08T17:29:13.052Z,289.90
2018-12-08T17:30:13.172Z,289.87
2018-12-08T17:31:13.145Z,289.92
2018-12-08T17:32:13.217Z,289.23
2018-12-08T17:33:13.261Z,288.70
2018-12-08T17:34:13.331Z,288.98
2018-12-08T17:35:13.402Z,288.98
2018-12-08T17:36:13.443Z,290.07
2018-12-08T17:37:13.536Z,288.49
2018-12-08T17:38:13.609Z,288.77
2018-12-08T17:39:13.593Z,289.99
2018-12-08T17:40:13.677Z,289.20
2018-12-08T17:41:13.731Z,289.22
2018-12-08T17:42:13.807Z,289.59
2018-12-08T17:43:13.853Z,290.01
2018-12-08T17:44:13.917Z,289.13
2018-12-08T17:45:13.976Z,289.21
2018-12-08T17:46:14.059Z,289.28
2018-12-08T17:47:14.113Z,288.85
2018-12-08T17:48:14.195Z,289.31
2018-12-08T17:49:14.222Z,289.04
2018-12-08T17:50:14.284Z,288.44
2018-12-08T17:51:14.346Z,289.73
2018-12-08T17:52:14.439Z,289.54
2018-12-08T17:53:14.491Z,289.07
2018-12-08T17:54:14.571Z,289.62
2018-12-08T17:55:14.719Z,290.05
2018-12-08T17:56:14.698Z,289.27
2018-12-08T17:57:14.747Z,290.09
2018-12-08T17:58:14.795Z,290.93
2018-12-08T17:59:14.839Z,289.59
2018-12-08T18:00:14.935Z,288.86
2018-12-08T18:01:14.991Z,288.94
2018-12-08T18:02:15.184Z,289.34
2018-12-08T18:03:15.183Z,289.87
2018-12-08T18:04:15.168Z,289.76
2018-12-08T18:05:15.227Z,289.71
2018-12-08T18:06:15.278Z,288.85
2018-12-08T18:07:15.354Z,290.18
2018-12-08T18:08:15.430Z,289.88
2018-12-08T18:09:15.477Z,289.22
2018-12-08T18:10:15.545Z,289.08
2018-12-08T18:11:15.649Z,290.12
2018-12-08T18:12:15.676Z,288.88
2018-12-08T18:13:15.737Z,290.16
2018-12-08T18:14:15.785Z,289.05
2018-12-08T18:15:15.877Z,289.49
2018-12-08T18:16:16.012Z,289.02
2018-12-08T18:17:15.986Z,288.16
2018-12-08T18:18:16.031Z,288.79
2018-12-08T18:19:16.155Z,288.46
2018-12-08T18:20:16.118Z,288.70
2018-12-08T18:21:18.970Z,289.47
2018-12-08T18:22:17.041Z,289.41
2018-12-08T18:23:16.298Z,288.09
2018-12-08T18:24:16.355Z,289.53
2018-12-08T18:25:16.414Z,288.71
2018-12-08T18:26:16.458Z,289.39
2018-12-08T18:27:16.582Z,289.35
2018-12-08T18:28:16.649Z,289.41
2018-12-08T18:29:16.633Z,289.00
2018-12-08T18:30:16.711Z,288.91
2018-12-08T18:31:16.738Z,289.55
2018-12-08T18:32:16.821Z,288.42
2018-12-08T18:33:16.912Z,289.49
2018-12-08T18:34:16.937Z,289.02
2018-12-08T18:35:16.978Z,288.80
2018-12-08T18:36:17.147Z,289.57
2018-12-08T18:37:17.103Z,288.39
2018-12-08T18:38:17.196Z,288.52
2018-12-08T18:39:17.212Z,289.10
2018-12-08T18:40:17.249Z,289.15
2018-12-08T18:41:17.308Z,289.42
2018-12-08T18:42:17.405Z,288.32
2018-12-08T18:43:17.444Z,288.61
2018-12-08T18:44:17.589Z,288.51
2018-12-08T18:45:17.542Z,288.79
2018-12-08T18:46:17.620Z,288.58
2018-12-08T18:47:17.679Z,288.42
2018-12-08T18:48:17.781Z,287.91
2018-12-08T18:49:18.915Z,288.90
2018-12-08T18:50:18.394Z,290.78
2018-12-08T18:51:17.871Z,289.94
2018-12-08T18:52:18.027Z,289.25
2018-12-08T18:53:17.996Z,288.72
2018-12-08T18:54:18.061Z,289.30
2018-12-08T18:55:18.092Z,289.21
2018-12-08T18:56:18.149Z,288.80
2018-12-08T18:57:18.222Z,288.89
2018-12-08T18:58:18.263Z,288.87
2018-12-08T18:59:18.341Z,288.70
2018-12-08T19:00:18.448Z,288.95
2018-12-08T19:01:18.445Z,288.77
2018-12-08T19:02:18.509Z,288.13
2018-12-08T19:03:18.552Z,289.50
2018-12-08T19:04:18.661Z,288.85
2018-12-08T19:05:18.665Z,288.68
2018-12-08T19:06:18.723Z,288.47
2018-12-08T19:07:18.794Z,289.15
2018-12-08T19:08:18.844Z,288.78
2018-12-08T19:09:19.009Z,289.58
2018-12-08T19:10:18.940Z,288.94
2018-12-08T19:11:19.002Z,288.84
2018-12-08T19:12:19.089Z,289.65
2018-12-08T19:13:19.109Z,289.23
2018-12-08T19:14:19.200Z,288.90
2018-12-08T19:15:19.230Z,288.95
2018-12-08T19:16:19.274Z,287.89
2018-12-08T19:17:19.482Z,288.48
2018-12-08T19:18:19.402Z,288.60
2018-12-08T19:19:19.493Z,289.07
2018-12-08T19:20:19.527Z,288.41
2018-12-08T19:21:19.565Z,288.80
2018-12-08T19:22:19.653Z,288.43
2018-12-08T19:23:19.710Z,288.98
2018-12-08T19:24:19.795Z,288.21
2018-12-08T19:25:19.895Z,288.54
2018-12-08T19:26:19.862Z,289.09
2018-12-08T19:27:19.957Z,288.75
2018-12-08T19:28:19.981Z,288.97
2018-12-08T19:29:20.057Z,288.70
2018-12-08T19:30:20.090Z,288.97
2018-12-08T19:31:20.173Z,288.61
2018-12-08T19:32:20.224Z,288.40
2018-12-08T19:33:20.303Z,289.33
2018-12-08T19:34:20.500Z,288.13
2018-12-08T19:35:20.380Z,288.84
2018-12-08T19:36:20.662Z,288.41
2018-12-08T19:37:20.521Z,288.05
2018-12-08T19:38:20.574Z,288.75
2018-12-08T19:39:20.647Z,289.26
2018-12-08T19:40:20.684Z,288.05
2018-12-08T19:41:20.743Z,288.87
2018-12-08T19:42:20.887Z,288.11
2018-12-08T19:43:20.836Z,287.88
2018-12-08T19:44:20.913Z,288.46
2018-12-08T19:45:20.960Z,288.48
2018-12-08T19:46:21.026Z,289.09
2018-12-08T19:47:21.083Z,287.69
2018-12-08T19:48:21.118Z,288.15
2018-12-08T19:49:21.202Z,288.14
2018-12-08T19:50:21.311Z,288.84
2018-12-08T19:51:21.287Z,288.63
2018-12-08T19:52:21.358Z,288.76
2018-12-08T19:53:21.403Z,288.39
2018-12-08T19:54:21.498Z,288.40
2018-12-08T19:55:21.531Z,289.32
2018-12-08T19:56:21.581Z,288.06
2018-12-08T19:57:21.651Z,288.62
2018-12-08T19:58:21.796Z,288.63
2018-12-08T19:59:21.764Z,288.69
2018-12-08T20:00:21.808Z,288.71
2018-12-08T20:01:21.853Z,288.91
2018-12-08T20:02:21.925Z,288.68
2018-12-08T20:03:21.972Z,288.82
2018-12-08T20:04:22.040Z,289.38
2018-12-08T20:05:22.117Z,288.61
2018-12-08T20:06:22.189Z,288.83
2018-12-08T20:07:22.191Z,288.74
2018-12-08T20:08:22.247Z,288.65
2018-12-08T20:09:22.332Z,289.80
2018-12-08T20:10:22.377Z,289.04
2018-12-08T20:11:22.427Z,288.90
2018-12-08T20:12:22.517Z,290.17
2018-12-08T20:13:22.554Z,289.37
2018-12-08T20:14:22.648Z,288.87
2018-12-08T20:15:22.715Z,289.63
2018-12-08T20:16:22.746Z,289.73
2018-12-08T20:17:22.817Z,288.50
2018-12-08T20:18:22.856Z,289.48
2018-12-08T20:19:22.928Z,289.86
2018-12-08T20:20:23.004Z,289.32
2018-12-08T20:21:23.150Z,289.36
2018-12-08T20:22:23.144Z,289.68
2018-12-08T20:23:23.268Z,289.53
2018-12-08T20:24:23.259Z,289.02
2018-12-08T20:25:23.289Z,289.88
2018-12-08T20:26:23.335Z,289.24
2018-12-08T20:27:23.406Z,289.49
2018-12-08T20:28:23.462Z,288.37
2018-12-08T20:29:23.524Z,289.70
2018-12-08T20:30:23.611Z,289.59
2018-12-08T20:31:23.779Z,289.92
2018-12-08T20:32:23.755Z,289.85
2018-12-08T20:33:23.784Z,290.00
2018-12-08T20:34:23.848Z,289.74
2018-12-08T20:35:23.903Z,289.86
2018-12-08T20:36:23.967Z,289.93
2018-12-08T20:37:24.026Z,289.94
2018-12-08T20:38:24.062Z,290.85
2018-12-08T20:39:24.220Z,290.00
2018-12-08T20:40:24.192Z,289.83
2018-12-08T20:41:24.246Z,290.27
2018-12-08T20:42:24.320Z,291.25
2018-12-08T20:43:24.374Z,290.31
2018-12-08T20:44:24.427Z,290.75
2018-12-08T20:45:24.478Z,290.39
2018-12-08T20:46:25.923Z,290.40
2018-12-08T20:47:24.655Z,290.57
2018-12-08T20:48:24.639Z,291.09
2018-12-08T20:49:24.947Z,291.16
2018-12-08T20:50:24.776Z,291.46
2018-12-08T20:51:24.832Z,289.99
2018-12-08T20:52:24.915Z,290.47
2018-12-08T20:53:24.951Z,291.27
2018-12-08T20:54:25.044Z,290.58
2018-12-08T20:55:25.096Z,291.61
2018-12-08T20:56:25.212Z,290.10
2018-12-08T20:57:25.200Z,290.82
2018-12-08T20:58:25.233Z,291.79
2018-12-08T20:59:25.322Z,289.58
2018-12-08T21:00:25.379Z,290.15
2018-12-08T21:01:25.438Z,290.56
2018-12-08T21:02:25.522Z,290.20
2018-12-08T21:03:25.545Z,290.34
2018-12-08T21:04:25.725Z,289.66
2018-12-08T21:05:25.663Z,289.30
2018-12-08T21:06:25.704Z,289.60
2018-12-08T21:07:25.782Z,289.44
2018-12-08T21:08:25.841Z,289.33
2018-12-08T21:09:25.924Z,290.72
2018-12-08T21:10:25.999Z,289.93
2018-12-08T21:11:26.021Z,289.91
2018-12-08T21:12:26.177Z,290.21
2018-12-08T21:13:26.134Z,289.75
2018-12-08T21:14:26.239Z,289.75
2018-12-08T21:15:26.272Z,290.10
2018-12-08T21:16:26.308Z,289.25
2018-12-08T21:17:26.388Z,290.13
2018-12-08T21:18:26.442Z,289.84
2018-12-08T21:19:26.518Z,289.98
2018-12-08T21:20:26.596Z,289.53
2018-12-08T21:21:26.598Z,290.29
2018-12-08T21:22:26.683Z,288.61
2018-12-08T21:23:27.191Z,290.07
2018-12-08T21:24:26.807Z,289.66
2018-12-08T21:25:26.899Z,289.43
2018-12-08T21:26:26.928Z,289.80
2018-12-08T21:27:27.004Z,290.42
2018-12-08T21:28:27.088Z,289.23
2018-12-08T21:29:27.202Z,290.24
2018-12-08T21:30:27.503Z,289.92
2018-12-08T21:31:27.287Z,289.72
2018-12-08T21:32:27.339Z,290.08
2018-12-08T21:33:27.420Z,289.42
2018-12-08T21:34:27.495Z,289.49
2018-12-08T21:35:27.542Z,288.38
2018-12-08T21:36:27.626Z,289.04
2018-12-08T21:37:27.857Z,289.96
2018-12-08T21:38:27.707Z,289.77
2018-12-08T21:39:27.786Z,288.94
2018-12-08T21:40:27.826Z,289.83
2018-12-08T21:41:27.948Z,289.22
2018-12-08T21:42:27.954Z,289.93
2018-12-08T21:43:28.011Z,289.70
2018-12-08T21:44:28.111Z,289.39
2018-12-08T21:45:28.250Z,289.10
2018-12-08T21:46:28.204Z,289.52
2018-12-08T21:47:28.239Z,291.56
2018-12-08T21:48:28.292Z,289.76
2018-12-08T21:49:28.372Z,289.93
2018-12-08T21:50:29.213Z,289.74
2018-12-08T21:51:28.495Z,289.27
2018-12-08T21:52:28.546Z,289.15
2018-12-08T21:53:28.642Z,289.38
2018-12-08T21:54:28.634Z,289.70
2018-12-08T21:55:28.691Z,290.56
2018-12-08T21:56:28.793Z,288.91
2018-12-08T21:57:28.820Z,289.51
2018-12-08T21:58:28.879Z,289.46
2018-12-08T21:59:28.968Z,288.64
2018-12-08T22:00:28.988Z,288.70
2018-12-08T22:01:29.352Z,289.62
2018-12-08T22:02:29.078Z,288.52
2018-12-08T22:03:29.175Z,289.42
2018-12-08T22:04:29.235Z,289.81
2018-12-08T22:05:29.275Z,288.72
2018-12-08T22:06:29.351Z,288.65
2018-12-08T22:07:29.383Z,288.78
2018-12-08T22:08:29.442Z,289.07
2018-12-08T22:09:29.535Z,289.48
2018-12-08T22:10:29.671Z,289.10
2018-12-08T22:11:29.663Z,289.57
2018-12-08T22:12:29.668Z,289.54
2018-12-08T22:13:29.744Z,289.00
2018-12-08T22:14:30.644Z,288.89
2018-12-08T22:15:29.839Z,288.47
2018-12-08T22:16:29.929Z,288.46
2018-12-08T22:17:29.966Z,289.00
2018-12-08T22:18:30.141Z,288.58
2018-12-08T22:19:30.112Z,288.60
2018-12-08T22:20:30.147Z,288.69
2018-12-08T22:21:30.236Z,288.02
2018-12-08T22:22:30.287Z,288.54
2018-12-08T22:23:30.333Z,289.05
2018-12-08T22:24:30.409Z,288.75
2018-12-08T22:25:30.449Z,288.79
2018-12-08T22:26:30.605Z,289.21
2018-12-08T22:27:30.565Z,289.93
2018-12-08T22:28:30.627Z,289.07
2018-12-08T22:29:30.709Z,288.79
2018-12-08T22:30:30.769Z,288.63
2018-12-08T22:31:30.846Z,289.17
2018-12-08T22:32:30.874Z,288.53
2018-12-08T22:33:30.954Z,289.12
2018-12-08T22:34:31.075Z,289.60
2018-12-08T22:35:31.028Z,288.83
2018-12-08T22:36:31.127Z,288.36
2018-12-08T22:37:31.161Z,289.05
2018-12-08T22:38:31.203Z,288.28
2018-12-08T22:39:31.288Z,288.50
2018-12-08T22:40:31.331Z,288.90
2018-12-08T22:41:31.418Z,287.77
2018-12-08T22:42:31.471Z,289.18
2018-12-08T22:43:31.557Z,288.45
2018-12-08T22:44:31.576Z,288.82
2018-12-08T22:45:31.636Z,288.11
2018-12-08T22:46:31.734Z,288.69
2018-12-08T22:47:31.744Z,289.83
2018-12-08T22:48:33.792Z,289.45
2018-12-08T22:49:31.888Z,289.84
2018-12-08T22:50:31.937Z,288.34
2018-12-08T22:51:32.113Z,288.91
2018-12-08T22:52:32.038Z,288.73
2018-12-08T22:53:32.113Z,289.15
2018-12-08T22:54:32.165Z,289.38
2018-12-08T22:55:32.197Z,288.52
2018-12-08T22:56:32.302Z,289.22
2018-12-08T22:57:32.316Z,288.58
2018-12-08T22:58:32.381Z,289.55
2018-12-08T22:59:32.538Z,288.56
2018-12-08T23:00:32.474Z,288.72
2018-12-08T23:01:32.588Z,289.21
2018-12-08T23:02:32.609Z,290.55
2018-12-08T23:03:32.666Z,289.11
2018-12-08T23:04:32.766Z,288.40
2018-12-08T23:05:32.781Z,290.09
2018-12-08T23:06:32.872Z,289.05
2018-12-08T23:07:32.940Z,288.72
2018-12-08T23:08:32.955Z,289.27
2018-12-08T23:09:33.021Z,289.14
2018-12-08T23:10:33.062Z,288.91
2018-12-08T23:11:33.160Z,289.45
2018-12-08T23:12:33.175Z,290.42
2018-12-08T23:13:33.229Z,289.60
2018-12-08T23:14:33.524Z,289.20
2018-12-08T23:15:33.467Z,289.49
2018-12-08T23:16:33.481Z,290.10
2018-12-08T23:17:33.532Z,289.84
2018-12-08T23:18:33.586Z,290.16
2018-12-08T23:19:33.682Z,288.84
2018-12-08T23:20:33.719Z,290.09
2018-12-08T23:21:33.807Z,289.87
2018-12-08T23:22:33.859Z,289.39
2018-12-08T23:23:33.926Z,289.86
2018-12-08T23:24:34.118Z,289.10
2018-12-08T23:25:34.006Z,289.85
2018-12-08T23:26:34.094Z,289.89
2018-12-08T23:27:34.120Z,291.40
2018-12-08T23:28:34.178Z,289.47
2018-12-08T23:29:34.258Z,289.34
2018-12-08T23:30:34.311Z,290.41
2018-12-08T23:31:34.374Z,289.32
2018-12-08T23:32:34.522Z,289.37
2018-12-08T23:33:34.458Z,290.30
2018-12-08T23:34:34.537Z,289.54
2018-12-08T23:35:34.588Z,289.45
2018-12-08T23:36:34.667Z,290.20
2018-12-08T23:37:34.707Z,289.88
2018-12-08T23:38:34.786Z,289.30
2018-12-08T23:39:38.968Z,289.88
2018-12-08T23:40:35.914Z,289.83
2018-12-08T23:41:34.938Z,289.35
2018-12-08T23:42:34.999Z,289.26
2018-12-08T23:43:35.034Z,289.07
2018-12-08T23:44:35.107Z,289.53
2018-12-08T23:45:35.143Z,289.76
2018-12-08T23:46:35.248Z,289.74
2018-12-08T23:47:35.277Z,289.22
2018-12-08T23:48:35.434Z,289.61
2018-12-08T23:49:35.410Z,289.34
2018-12-08T23:50:35.438Z,289.81
2018-12-08T23:51:35.528Z,289.84
2018-12-08T23:52:35.559Z,288.79
2018-12-08T23:53:35.639Z,290.34
2018-12-08T23:54:35.708Z,289.67
2018-12-08T23:55:35.753Z,289.54
2018-12-08T23:56:35.871Z,289.23
2018-12-08T23:57:35.954Z,289.18
2018-12-08T23:58:35.922Z,290.24
2018-12-08T23:59:35.997Z,289.52
